createdAt,value
2023-01-17T00:02:18.093Z,8.75
2023-01-17T00:05:03.890Z,6.85
2023-01-17T00:07:49.480Z,5.93
2023-01-17T00:10:22.577Z,7.93
2023-01-17T00:12:53.010Z,5.97
2023-01-17T00:15:21.052Z,5.88
2023-01-17T00:17:48.729Z,6.68
2023-01-17T00:20:36.623Z,6.00
2023-01-17T00:23:39.092Z,5.45
2023-01-17T00:26:18.206Z,8.15
2023-01-17T00:28:45.510Z,7.38
2023-01-17T00:31:14.543Z,6.72
2023-01-17T00:33:41.345Z,8.27
2023-01-17T00:36:08.829Z,7.00
2023-01-17T00:38:37.623Z,14.63
2023-01-17T00:41:07.383Z,7.72
2023-01-17T00:43:53.137Z,8.80
2023-01-17T00:46:38.915Z,8.52
2023-01-17T00:49:24.699Z,8.57
2023-01-17T00:52:10.553Z,7.47
2023-01-17T00:54:55.800Z,8.43
2023-01-17T00:57:40.967Z,9.30
2023-01-17T01:00:27.284Z,8.95
2023-01-17T01:03:12.508Z,6.78
2023-01-17T01:05:57.699Z,6.15
2023-01-17T01:08:45.546Z,5.88
2023-01-17T01:11:36.881Z,6.38
2023-01-17T01:14:23.121Z,5.30
2023-01-17T01:17:08.812Z,4.63
2023-01-17T01:19:54.597Z,5.93
2023-01-17T01:22:39.839Z,3.25
2023-01-17T01:25:25.691Z,5.65
2023-01-17T01:28:10.860Z,2.88
2023-01-17T01:30:56.111Z,4.50
2023-01-17T01:33:22.934Z,3.10
2023-01-17T01:35:55.092Z,3.58
2023-01-17T01:38:24.516Z,4.30
2023-01-17T01:40:54.513Z,3.10
2023-01-17T01:43:39.077Z,3.15
2023-01-17T01:46:06.933Z,3.10
2023-01-17T01:48:36.990Z,3.28
2023-01-17T01:51:08.642Z,4.32
2023-01-17T01:53:38.620Z,3.25
2023-01-17T01:56:10.862Z,4.00
2023-01-17T01:58:39.635Z,3.05
2023-01-17T02:01:08.445Z,3.50
2023-01-17T02:03:36.367Z,3.28
2023-01-17T02:06:14.972Z,4.43
2023-01-17T02:08:42.258Z,5.38
2023-01-17T02:11:09.395Z,3.83
2023-01-17T02:13:36.606Z,2.70
2023-01-17T02:16:23.005Z,2.88
2023-01-17T02:19:01.779Z,2.40
2023-01-17T02:21:31.083Z,3.45
2023-01-17T02:24:24.935Z,2.30
2023-01-17T02:27:03.956Z,2.92
2023-01-17T02:29:33.674Z,2.20
2023-01-17T02:32:19.190Z,2.38
2023-01-17T02:34:54.652Z,2.65
2023-01-17T02:37:44.419Z,2.97
2023-01-17T02:40:20.030Z,2.92
2023-01-17T02:42:53.164Z,2.22
2023-01-17T02:45:20.715Z,2.60
2023-01-17T02:47:47.518Z,2.92
2023-01-17T02:50:20.157Z,4.20
2023-01-17T02:53:22.566Z,2.70
2023-01-17T02:55:52.334Z,2.40
2023-01-17T02:58:45.183Z,2.88
2023-01-17T03:01:15.920Z,3.15
2023-01-17T03:04:15.048Z,2.35
2023-01-17T03:06:48.418Z,2.80
2023-01-17T03:09:17.203Z,2.63
2023-01-17T03:11:44.280Z,2.50
2023-01-17T03:14:11.151Z,2.75
2023-01-17T03:16:38.601Z,2.55
2023-01-17T03:19:05.626Z,2.28
2023-01-17T03:21:32.368Z,3.03
2023-01-17T03:23:59.169Z,3.53
2023-01-17T03:26:25.969Z,4.05
2023-01-17T03:28:52.811Z,5.45
2023-01-17T03:31:22.442Z,3.10
2023-01-17T03:33:49.324Z,2.95
2023-01-17T03:36:16.137Z,2.50
2023-01-17T03:38:42.971Z,4.07
2023-01-17T03:41:09.721Z,3.42
2023-01-17T03:43:36.595Z,2.60
2023-01-17T03:46:05.745Z,3.25
2023-01-17T03:48:33.183Z,2.33
2023-01-17T03:51:00.059Z,2.50
2023-01-17T03:53:26.899Z,3.17
2023-01-17T03:55:53.753Z,10.52
2023-01-17T03:58:20.773Z,13.82
2023-01-17T04:00:47.653Z,8.98
2023-01-17T04:03:14.483Z,7.25
2023-01-17T04:05:41.225Z,9.00
2023-01-17T04:08:07.990Z,12.85
2023-01-17T04:10:34.836Z,21.60
2023-01-17T04:13:01.640Z,28.25
2023-01-17T04:15:28.491Z,9.07
2023-01-17T04:17:55.584Z,10.23
2023-01-17T04:20:32.139Z,17.63
2023-01-17T04:22:59.447Z,7.78
2023-01-17T04:25:26.656Z,6.55
2023-01-17T04:27:54.121Z,2.80
2023-01-17T04:30:21.057Z,3.33
2023-01-17T04:32:47.927Z,4.07
2023-01-17T04:35:14.880Z,3.03
2023-01-17T04:37:41.850Z,2.65
2023-01-17T04:40:09.909Z,2.30
2023-01-17T04:42:36.975Z,2.03
2023-01-17T04:45:04.835Z,2.63
2023-01-17T04:47:32.892Z,2.47
2023-01-17T04:50:00.141Z,2.90
2023-01-17T04:52:27.010Z,3.50
2023-01-17T04:54:53.767Z,3.00
2023-01-17T04:57:21.035Z,5.13
2023-01-17T04:59:47.913Z,6.60
2023-01-17T05:02:15.283Z,3.65
2023-01-17T05:04:42.024Z,3.72
2023-01-17T05:07:08.815Z,2.55
2023-01-17T05:09:35.649Z,2.45
2023-01-17T05:12:02.763Z,2.95
2023-01-17T05:14:29.604Z,2.72
2023-01-17T05:16:57.475Z,3.70
2023-01-17T05:19:25.640Z,3.25
2023-01-17T05:21:52.615Z,3.33
2023-01-17T05:24:19.643Z,3.08
2023-01-17T05:26:54.536Z,3.67
2023-01-17T05:29:21.827Z,3.03
2023-01-17T05:31:48.551Z,4.25
2023-01-17T05:34:15.450Z,5.60
2023-01-17T05:36:42.323Z,3.05
2023-01-17T05:39:09.254Z,2.47
2023-01-17T05:41:36.036Z,3.28
2023-01-17T05:44:02.791Z,2.95
2023-01-17T05:46:30.204Z,3.10
2023-01-17T05:48:57.121Z,9.48
2023-01-17T05:51:23.942Z,4.10
2023-01-17T05:53:50.740Z,3.55
2023-01-17T05:56:17.556Z,8.63
2023-01-17T05:58:44.578Z,10.25
2023-01-17T06:01:11.578Z,3.22
2023-01-17T06:03:38.371Z,3.00
2023-01-17T06:06:05.312Z,1.85
2023-01-17T06:08:32.198Z,3.78
2023-01-17T06:10:59.600Z,2.25
2023-01-17T06:13:26.577Z,2.20
2023-01-17T06:15:53.483Z,2.30
2023-01-17T06:18:20.394Z,2.47
2023-01-17T06:20:54.261Z,1.98
2023-01-17T06:23:22.053Z,1.98
2023-01-17T06:25:48.935Z,2.60
2023-01-17T06:28:20.991Z,2.30
2023-01-17T06:31:50.338Z,2.43
2023-01-17T06:34:17.220Z,2.42
2023-01-17T06:36:44.094Z,3.83
2023-01-17T06:39:12.342Z,2.35
2023-01-17T06:41:40.984Z,2.25
2023-01-17T06:44:09.404Z,2.78
2023-01-17T06:46:36.309Z,6.78
2023-01-17T06:49:03.406Z,2.85
2023-01-17T06:51:30.143Z,2.20
2023-01-17T06:53:57.103Z,2.58
2023-01-17T06:56:24.034Z,3.40
2023-01-17T06:58:51.957Z,2.53
2023-01-17T07:01:19.246Z,2.65
2023-01-17T07:03:46.352Z,2.13
2023-01-17T07:06:13.182Z,2.75
2023-01-17T07:08:39.993Z,3.22
2023-01-17T07:11:08.130Z,2.90
2023-01-17T07:13:36.636Z,2.75
2023-01-17T07:16:04.594Z,2.15
2023-01-17T07:18:32.026Z,2.67
2023-01-17T07:20:58.878Z,2.80
2023-01-17T07:23:25.983Z,3.00
2023-01-17T07:25:57.671Z,2.15
2023-01-17T07:28:25.998Z,4.93
2023-01-17T07:30:52.762Z,2.65
2023-01-17T07:33:20.120Z,2.38
2023-01-17T07:35:46.994Z,2.35
2023-01-17T07:38:18.718Z,5.00
2023-01-17T07:40:46.142Z,4.78
2023-01-17T07:43:14.194Z,5.20
2023-01-17T07:45:51.670Z,3.45
2023-01-17T07:48:20.238Z,3.13
2023-01-17T07:50:57.971Z,2.95
2023-01-17T07:53:29.826Z,3.05
2023-01-17T07:56:04.943Z,2.97
2023-01-17T07:58:32.499Z,3.47
2023-01-17T08:01:10.680Z,3.25
2023-01-17T08:03:40.227Z,4.43
2023-01-17T08:06:14.748Z,6.50
2023-01-17T08:08:41.567Z,5.10
2023-01-17T08:11:08.363Z,2.00
2023-01-17T08:13:35.231Z,2.20
2023-01-17T08:16:04.658Z,2.05
2023-01-17T08:18:31.518Z,2.45
2023-01-17T08:20:58.318Z,2.63
2023-01-17T08:23:25.545Z,2.20
2023-01-17T08:25:52.345Z,2.67
2023-01-17T08:28:19.929Z,3.33
2023-01-17T08:30:46.725Z,9.10
2023-01-17T08:33:13.555Z,16.27
2023-01-17T08:35:41.453Z,20.45
2023-01-17T08:38:09.131Z,9.00
2023-01-17T08:40:35.873Z,5.43
2023-01-17T08:43:03.944Z,3.00
2023-01-17T08:45:30.772Z,2.20
2023-01-17T08:47:58.291Z,3.30
2023-01-17T08:50:26.082Z,3.42
2023-01-17T08:53:00.174Z,2.75
2023-01-17T08:55:27.825Z,7.00
2023-01-17T08:57:56.019Z,4.65
2023-01-17T09:00:22.800Z,2.90
2023-01-17T09:02:52.169Z,4.75
2023-01-17T09:05:18.984Z,2.35
2023-01-17T09:07:45.730Z,3.65
2023-01-17T09:10:12.608Z,5.35
2023-01-17T09:12:40.385Z,5.68
2023-01-17T09:15:07.986Z,2.03
2023-01-17T09:17:34.852Z,2.35
2023-01-17T09:20:01.689Z,2.95
2023-01-17T09:22:28.546Z,2.15
2023-01-17T09:24:55.384Z,3.53
2023-01-17T09:27:22.169Z,2.20
2023-01-17T09:29:48.955Z,3.03
2023-01-17T09:32:17.161Z,2.88
2023-01-17T09:34:44.430Z,1.98
2023-01-17T09:37:11.215Z,2.67
2023-01-17T09:39:38.105Z,2.97
2023-01-17T09:42:32.558Z,4.32
2023-01-17T09:44:59.400Z,4.15
2023-01-17T09:47:43.623Z,2.45
2023-01-17T09:50:32.222Z,2.90
2023-01-17T09:53:07.604Z,2.50
2023-01-17T09:55:45.635Z,2.15
2023-01-17T09:58:31.512Z,4.03
2023-01-17T10:01:01.197Z,2.25
2023-01-17T10:03:43.958Z,2.47
2023-01-17T10:06:22.790Z,2.58
2023-01-17T10:09:09.099Z,2.53
2023-01-17T10:12:02.593Z,4.43
2023-01-17T10:14:44.853Z,2.10
2023-01-17T10:17:20.697Z,2.15
2023-01-17T10:19:59.427Z,3.85
2023-01-17T10:22:38.187Z,2.90
2023-01-17T10:25:27.788Z,2.45
2023-01-17T10:27:59.591Z,2.03
2023-01-17T10:30:42.431Z,2.83
2023-01-17T10:33:18.058Z,2.78
2023-01-17T10:36:08.545Z,2.97
2023-01-17T10:38:38.365Z,2.33
2023-01-17T10:41:14.778Z,4.25
2023-01-17T10:44:33.137Z,2.90
2023-01-17T10:47:11.643Z,2.15
2023-01-17T10:49:52.033Z,2.90
2023-01-17T10:52:38.225Z,2.60
2023-01-17T10:55:36.078Z,3.28
2023-01-17T10:58:03.701Z,3.28
2023-01-17T11:00:44.138Z,2.10
2023-01-17T11:03:16.802Z,2.10
2023-01-17T11:05:43.935Z,3.60
2023-01-17T11:08:13.561Z,2.75
2023-01-17T11:10:46.632Z,5.63
2023-01-17T11:13:37.029Z,2.13
2023-01-17T11:16:10.104Z,2.58
2023-01-17T11:18:39.855Z,2.55
2023-01-17T11:21:18.872Z,3.83
2023-01-17T11:23:49.174Z,2.53
2023-01-17T11:26:30.601Z,2.50
2023-01-17T11:29:25.553Z,4.32
2023-01-17T11:31:53.215Z,3.08
2023-01-17T11:34:32.016Z,2.15
2023-01-17T11:37:20.159Z,2.38
2023-01-17T11:39:50.429Z,4.80
2023-01-17T11:42:37.841Z,5.10
2023-01-17T11:45:26.779Z,2.25
2023-01-17T11:48:14.487Z,3.65
2023-01-17T11:50:59.357Z,2.25
2023-01-17T11:53:33.517Z,2.40
2023-01-17T11:56:18.095Z,3.42
2023-01-17T11:58:48.197Z,3.80
2023-01-17T12:01:31.825Z,3.65
2023-01-17T12:04:27.515Z,2.47
2023-01-17T12:07:23.737Z,7.55
2023-01-17T12:09:56.073Z,2.58
2023-01-17T12:12:41.721Z,3.85
2023-01-17T12:15:14.611Z,2.60
2023-01-17T12:17:56.278Z,2.00
2023-01-17T12:20:43.947Z,3.60
2023-01-17T12:23:34.963Z,1.88
2023-01-17T12:26:55.595Z,3.17
2023-01-17T12:29:36.376Z,2.10
2023-01-17T12:32:05.694Z,1.67
2023-01-17T12:34:40.256Z,2.35
2023-01-17T12:37:18.672Z,2.42
2023-01-17T12:40:05.252Z,3.25
2023-01-17T12:42:38.651Z,2.20
2023-01-17T12:45:14.226Z,3.78
2023-01-17T12:47:45.441Z,2.33
2023-01-17T12:50:23.431Z,2.95
2023-01-17T12:53:20.256Z,2.67
2023-01-17T12:56:00.703Z,3.53
2023-01-17T12:58:44.705Z,2.15
2023-01-17T13:01:39.703Z,2.10
2023-01-17T13:04:22.957Z,2.17
2023-01-17T13:06:58.439Z,3.05
2023-01-17T13:09:28.251Z,2.00
2023-01-17T13:12:06.191Z,2.83
2023-01-17T13:14:33.104Z,3.53
2023-01-17T13:17:19.018Z,4.03
2023-01-17T13:19:54.197Z,4.07
2023-01-17T13:22:24.142Z,2.80
2023-01-17T13:25:12.467Z,1.90
2023-01-17T13:27:39.233Z,3.20
2023-01-17T13:30:43.400Z,3.90
2023-01-17T13:33:36.430Z,4.35
2023-01-17T13:36:15.217Z,3.05
2023-01-17T13:38:54.899Z,3.63
2023-01-17T13:41:33.847Z,2.80
2023-01-17T13:44:20.974Z,2.05
2023-01-17T13:46:58.589Z,3.17
2023-01-17T13:49:28.394Z,2.75
2023-01-17T13:52:02.726Z,3.60
2023-01-17T13:54:32.786Z,3.40
2023-01-17T13:57:27.845Z,2.65
2023-01-17T13:59:57.987Z,2.97
2023-01-17T14:02:33.933Z,2.60
2023-01-17T14:05:28.646Z,2.75
2023-01-17T14:08:12.119Z,2.78
2023-01-17T14:10:51.493Z,3.33
2023-01-17T14:13:39.102Z,2.67
2023-01-17T14:16:23.020Z,2.33
2023-01-17T14:18:50.276Z,3.38
2023-01-17T14:21:22.561Z,5.55
2023-01-17T14:24:04.040Z,3.10
2023-01-17T14:26:58.583Z,2.42
2023-01-17T14:29:49.217Z,5.32
2023-01-17T14:32:19.565Z,3.03
2023-01-17T14:34:48.269Z,2.80
2023-01-17T14:37:21.024Z,2.60
2023-01-17T14:39:50.356Z,4.05
2023-01-17T14:42:20.437Z,3.35
2023-01-17T14:45:03.955Z,4.72
2023-01-17T14:47:33.837Z,2.60
2023-01-17T14:50:22.124Z,3.05
2023-01-17T14:53:11.622Z,2.28
2023-01-17T14:55:49.240Z,2.65
2023-01-17T14:58:24.256Z,4.25
2023-01-17T15:00:55.147Z,3.42
2023-01-17T15:03:22.674Z,3.17
2023-01-17T15:05:52.318Z,3.83
2023-01-17T15:08:22.251Z,3.70
2023-01-17T15:11:00.216Z,3.55
2023-01-17T15:13:44.336Z,2.15
2023-01-17T15:16:24.699Z,4.13
2023-01-17T15:18:53.001Z,2.50
2023-01-17T15:21:26.949Z,3.97
2023-01-17T15:23:56.947Z,5.13
2023-01-17T15:26:27.147Z,3.95
2023-01-17T15:29:05.129Z,3.42
2023-01-17T15:31:47.744Z,3.00
2023-01-17T15:34:38.672Z,3.95
2023-01-17T15:37:34.817Z,3.28
2023-01-17T15:40:23.344Z,4.18
2023-01-17T15:43:01.018Z,3.35
2023-01-17T15:45:32.623Z,2.90
2023-01-17T15:48:40.877Z,3.38
2023-01-17T15:51:09.187Z,5.32
2023-01-17T15:53:39.833Z,4.60
2023-01-17T15:56:31.426Z,3.88
2023-01-17T15:59:30.243Z,4.20
2023-01-17T16:01:58.289Z,5.35
2023-01-17T16:04:37.256Z,3.42
2023-01-17T16:07:19.644Z,5.53
2023-01-17T16:09:47.052Z,4.05
2023-01-17T16:12:14.297Z,4.38
2023-01-17T16:15:02.483Z,4.80
2023-01-17T16:17:28.691Z,5.55
2023-01-17T16:19:55.448Z,3.47
2023-01-17T16:22:22.327Z,3.80
2023-01-17T16:24:49.121Z,6.40
2023-01-17T16:27:15.842Z,5.88
2023-01-17T16:29:42.532Z,4.85
2023-01-17T16:32:09.214Z,4.95
2023-01-17T16:34:36.001Z,6.70
2023-01-17T16:37:04.207Z,5.55
2023-01-17T16:39:30.990Z,4.95
2023-01-17T16:42:03.971Z,4.97
2023-01-17T16:44:31.293Z,5.38
2023-01-17T16:47:02.064Z,6.03
2023-01-17T16:49:32.404Z,4.75
2023-01-17T16:51:59.483Z,5.80
2023-01-17T16:54:26.662Z,5.95
2023-01-17T16:56:53.660Z,5.15
2023-01-17T16:59:21.634Z,8.35
2023-01-17T17:01:50.445Z,3.88
2023-01-17T17:04:17.246Z,4.60
2023-01-17T17:06:44.627Z,6.90
2023-01-17T17:09:11.889Z,4.68
2023-01-17T17:11:42.273Z,5.35
2023-01-17T17:14:10.032Z,3.63
2023-01-17T17:16:37.420Z,3.47
2023-01-17T17:19:07.333Z,5.60
2023-01-17T17:21:37.630Z,4.43
2023-01-17T17:24:05.168Z,5.85
2023-01-17T17:26:34.940Z,6.22
2023-01-17T17:29:03.411Z,5.10
2023-01-17T17:31:30.438Z,6.20
2023-01-17T17:34:03.479Z,6.47
2023-01-17T17:36:31.132Z,4.55
2023-01-17T17:38:59.055Z,4.10
2023-01-17T17:41:33.962Z,3.55
2023-01-17T17:44:02.627Z,4.43
2023-01-17T17:46:30.631Z,5.57
2023-01-17T17:48:58.668Z,3.63
2023-01-17T17:51:31.576Z,4.43
2023-01-17T17:54:01.554Z,5.45
2023-01-17T17:56:30.244Z,5.60
2023-01-17T17:58:58.787Z,5.10
2023-01-17T18:01:25.999Z,5.35
2023-01-17T18:03:55.459Z,7.32
2023-01-17T18:06:23.173Z,4.75
2023-01-17T18:08:52.132Z,9.45
2023-01-17T18:11:26.779Z,4.10
2023-01-17T18:13:55.338Z,5.07
2023-01-17T18:16:30.544Z,6.13
2023-01-17T18:18:59.247Z,6.10
2023-01-17T18:21:28.976Z,7.65
2023-01-17T18:24:04.402Z,5.53
2023-01-17T18:26:45.926Z,6.00
2023-01-17T18:29:16.412Z,3.67
2023-01-17T18:31:44.870Z,5.72
2023-01-17T18:34:17.653Z,8.80
2023-01-17T18:36:45.051Z,3.55
2023-01-17T18:39:21.608Z,7.22
2023-01-17T18:41:49.680Z,4.97
2023-01-17T18:44:18.069Z,5.00
2023-01-17T18:46:47.919Z,4.03
2023-01-17T18:49:16.524Z,4.97
2023-01-17T18:51:46.631Z,5.72
2023-01-17T18:54:13.729Z,6.20
2023-01-17T18:56:40.634Z,4.95
2023-01-17T18:59:08.970Z,4.32
2023-01-17T19:01:36.367Z,4.75
2023-01-17T19:04:05.583Z,6.13
2023-01-17T19:06:38.705Z,7.85
2023-01-17T19:09:08.232Z,6.18
2023-01-17T19:11:36.726Z,5.93
2023-01-17T19:14:04.285Z,5.00
2023-01-17T19:16:35.111Z,4.20
2023-01-17T19:19:04.924Z,6.25
2023-01-17T19:21:32.378Z,4.75
2023-01-17T19:23:59.515Z,6.78
2023-01-17T19:26:27.642Z,6.15
2023-01-17T19:28:56.705Z,6.35
2023-01-17T19:31:26.200Z,4.03
2023-01-17T19:33:56.821Z,5.97
2023-01-17T19:36:26.628Z,6.47
2023-01-17T19:39:04.078Z,4.80
2023-01-17T19:41:32.657Z,5.88
2023-01-17T19:44:02.057Z,4.72
2023-01-17T19:46:29.462Z,5.88
2023-01-17T19:48:57.937Z,5.82
2023-01-17T19:51:25.528Z,5.90
2023-01-17T19:53:53.678Z,6.65
2023-01-17T19:56:26.001Z,5.32
2023-01-17T19:58:53.520Z,5.93
2023-01-17T20:01:28.090Z,3.50
2023-01-17T20:03:57.634Z,7.05
2023-01-17T20:06:27.959Z,9.65
2023-01-17T20:08:54.759Z,5.88
2023-01-17T20:11:23.326Z,6.07
2023-01-17T20:13:54.325Z,4.97
2023-01-17T20:16:22.488Z,5.82
2023-01-17T20:18:49.783Z,5.47
2023-01-17T20:21:22.356Z,8.05
2023-01-17T20:23:50.940Z,7.53
2023-01-17T20:26:21.028Z,7.20
2023-01-17T20:28:49.529Z,4.45
2023-01-17T20:31:19.084Z,5.80
2023-01-17T20:33:47.422Z,4.68
2023-01-17T20:36:15.714Z,5.07
2023-01-17T20:38:43.888Z,7.57
2023-01-17T20:41:24.992Z,6.07
2023-01-17T20:43:57.294Z,5.40
2023-01-17T20:46:26.800Z,5.07
2023-01-17T20:48:55.490Z,4.90
2023-01-17T20:51:24.522Z,4.35
2023-01-17T20:53:57.308Z,4.88
2023-01-17T20:56:25.399Z,5.88
2023-01-17T20:58:53.971Z,5.35
2023-01-17T21:01:24.541Z,7.70
2023-01-17T21:03:53.824Z,4.10
2023-01-17T21:06:23.556Z,5.40
2023-01-17T21:08:51.327Z,6.90
2023-01-17T21:11:21.209Z,5.70
2023-01-17T21:13:51.431Z,4.30
2023-01-17T21:16:21.103Z,3.80
2023-01-17T21:18:49.967Z,5.28
2023-01-17T21:21:22.175Z,4.85
2023-01-17T21:23:51.122Z,5.78
2023-01-17T21:26:21.078Z,5.63
2023-01-17T21:28:49.431Z,5.72
2023-01-17T21:31:25.811Z,5.80
2023-01-17T21:33:55.362Z,4.93
2023-01-17T21:36:24.222Z,5.38
2023-01-17T21:38:52.636Z,5.53
2023-01-17T21:41:21.635Z,6.53
2023-01-17T21:43:54.096Z,4.95
2023-01-17T21:46:21.018Z,4.55
2023-01-17T21:48:47.918Z,4.55
2023-01-17T21:51:15.031Z,5.88
2023-01-17T21:53:41.862Z,4.90
2023-01-17T21:56:31.053Z,5.95
2023-01-17T21:58:58.245Z,6.57
2023-01-17T22:01:28.364Z,5.47
2023-01-17T22:03:57.385Z,6.87
2023-01-17T22:06:26.915Z,5.93
2023-01-17T22:08:54.133Z,8.15
2023-01-17T22:11:23.963Z,5.90
2023-01-17T22:13:51.316Z,7.28
2023-01-17T22:16:20.622Z,7.30
2023-01-17T22:18:47.613Z,7.00
2023-01-17T22:21:19.507Z,6.15
2023-01-17T22:23:48.449Z,7.05
2023-01-17T22:26:15.625Z,7.13
2023-01-17T22:28:42.943Z,7.00
2023-01-17T22:31:12.946Z,6.70
2023-01-17T22:33:42.190Z,8.27
2023-01-17T22:36:10.439Z,6.90
2023-01-17T22:38:37.649Z,7.97
2023-01-17T22:41:09.598Z,7.97
2023-01-17T22:43:38.589Z,8.07
2023-01-17T22:46:11.141Z,7.30
2023-01-17T22:48:39.203Z,7.93
2023-01-17T22:51:08.725Z,6.68
2023-01-17T22:53:40.369Z,6.55
2023-01-17T22:56:09.857Z,8.48
2023-01-17T22:58:36.653Z,6.57
2023-01-17T23:01:05.531Z,7.65
2023-01-17T23:03:33.858Z,8.27
2023-01-17T23:06:14.491Z,7.97
2023-01-17T23:08:44.427Z,6.68
2023-01-17T23:11:39.055Z,8.20
2023-01-17T23:14:28.786Z,8.43
2023-01-17T23:17:19.305Z,7.50
2023-01-17T23:19:49.918Z,10.18
2023-01-17T23:22:21.910Z,7.82
2023-01-17T23:24:57.623Z,6.68
2023-01-17T23:27:45.633Z,7.20
2023-01-17T23:30:19.501Z,6.60
2023-01-17T23:32:51.875Z,5.80
2023-01-17T23:35:20.494Z,7.00
2023-01-17T23:38:06.237Z,6.22
2023-01-17T23:40:34.665Z,6.35
2023-01-17T23:43:20.372Z,5.90
2023-01-17T23:45:47.477Z,6.97
2023-01-17T23:48:14.401Z,6.57
2023-01-17T23:50:46.145Z,7.45
2023-01-17T23:53:24.772Z,14.55
2023-01-17T23:55:56.772Z,18.52
2023-01-17T23:58:25.507Z,19.65
